sensor_id;sensor_type;location;lat;lon;timestamp;P1;durP1;ratioP1;P2;durP2;ratioP2
43327;SDS011;28923;45.412;10.852;2023-02-28T00:00:07;218.80;;;133.68;;
43327;SDS011;28923;45.412;10.852;2023-02-28T00:02:39;215.82;;;131.40;;
43327;SDS011;28923;45.412;10.852;2023-02-28T00:05:05;214.85;;;130.40;;
43327;SDS011;28923;45.412;10.852;2023-02-28T00:07:31;215.20;;;129.18;;
43327;SDS011;28923;45.412;10.852;2023-02-28T00:09:56;208.48;;;127.18;;
43327;SDS011;28923;45.412;10.852;2023-02-28T00:12:22;214.15;;;128.18;;
43327;SDS011;28923;45.412;10.852;2023-02-28T00:14:48;200.10;;;124.20;;
43327;SDS011;28923;45.412;10.852;2023-02-28T00:17:13;193.32;;;121.35;;
43327;SDS011;28923;45.412;10.852;2023-02-28T00:19:38;191.25;;;119.10;;
43327;SDS011;28923;45.412;10.852;2023-02-28T00:22:04;191.40;;;116.85;;
43327;SDS011;28923;45.412;10.852;2023-02-28T00:24:29;183.02;;;116.75;;
43327;SDS011;28923;45.412;10.852;2023-02-28T00:26:54;184.95;;;113.45;;
43327;SDS011;28923;45.412;10.852;2023-02-28T00:29:20;172.35;;;110.43;;
43327;SDS011;28923;45.412;10.852;2023-02-28T00:31:45;175.38;;;110.53;;
43327;SDS011;28923;45.412;10.852;2023-02-28T00:34:10;168.85;;;107.97;;
43327;SDS011;28923;45.412;10.852;2023-02-28T00:36:36;172.95;;;106.03;;
43327;SDS011;28923;45.412;10.852;2023-02-28T00:39:03;157.15;;;102.50;;
43327;SDS011;28923;45.412;10.852;2023-02-28T00:41:28;158.27;;;99.63;;
43327;SDS011;28923;45.412;10.852;2023-02-28T00:43:54;157.18;;;99.35;;
43327;SDS011;28923;45.412;10.852;2023-02-28T00:46:19;149.82;;;95.13;;
43327;SDS011;28923;45.412;10.852;2023-02-28T00:48:45;146.18;;;93.70;;
43327;SDS011;28923;45.412;10.852;2023-02-28T00:51:10;150.73;;;94.50;;
43327;SDS011;28923;45.412;10.852;2023-02-28T00:53:35;144.15;;;90.57;;
43327;SDS011;28923;45.412;10.852;2023-02-28T00:56:01;143.05;;;88.72;;
43327;SDS011;28923;45.412;10.852;2023-02-28T00:58:26;134.45;;;85.82;;
43327;SDS011;28923;45.412;10.852;2023-02-28T01:00:52;132.82;;;84.85;;
43327;SDS011;28923;45.412;10.852;2023-02-28T01:03:19;126.55;;;82.70;;
43327;SDS011;28923;45.412;10.852;2023-02-28T01:05:45;127.57;;;81.78;;
43327;SDS011;28923;45.412;10.852;2023-02-28T01:08:10;129.35;;;79.75;;
43327;SDS011;28923;45.412;10.852;2023-02-28T01:10:36;117.20;;;74.82;;
43327;SDS011;28923;45.412;10.852;2023-02-28T01:13:02;119.85;;;76.13;;
43327;SDS011;28923;45.412;10.852;2023-02-28T01:15:27;115.70;;;74.03;;
43327;SDS011;28923;45.412;10.852;2023-02-28T01:17:53;112.20;;;70.65;;
43327;SDS011;28923;45.412;10.852;2023-02-28T01:20:18;110.05;;;69.45;;
43327;SDS011;28923;45.412;10.852;2023-02-28T01:22:44;107.78;;;68.43;;
43327;SDS011;28923;45.412;10.852;2023-02-28T01:25:09;102.40;;;65.55;;
43327;SDS011;28923;45.412;10.852;2023-02-28T01:27:34;105.40;;;67.63;;
43327;SDS011;28923;45.412;10.852;2023-02-28T01:30:01;102.50;;;65.55;;
43327;SDS011;28923;45.412;10.852;2023-02-28T01:32:26;99.45;;;63.20;;
43327;SDS011;28923;45.412;10.852;2023-02-28T01:34:51;94.75;;;62.53;;
43327;SDS011;28923;45.412;10.852;2023-02-28T01:37:17;93.95;;;60.30;;
43327;SDS011;28923;45.412;10.852;2023-02-28T01:39:43;93.57;;;59.15;;
43327;SDS011;28923;45.412;10.852;2023-02-28T01:42:08;95.20;;;59.45;;
43327;SDS011;28923;45.412;10.852;2023-02-28T01:47:18;84.97;;;55.33;;
43327;SDS011;28923;45.412;10.852;2023-02-28T01:49:43;85.22;;;54.38;;
43327;SDS011;28923;45.412;10.852;2023-02-28T01:52:09;83.05;;;52.75;;
43327;SDS011;28923;45.412;10.852;2023-02-28T01:54:43;80.63;;;51.80;;
43327;SDS011;28923;45.412;10.852;2023-02-28T01:57:11;81.88;;;50.00;;
43327;SDS011;28923;45.412;10.852;2023-02-28T01:59:40;76.00;;;49.45;;
43327;SDS011;28923;45.412;10.852;2023-02-28T02:02:14;74.15;;;47.72;;
43327;SDS011;28923;45.412;10.852;2023-02-28T02:04:41;75.78;;;47.65;;
43327;SDS011;28923;45.412;10.852;2023-02-28T02:07:10;71.13;;;45.20;;
43327;SDS011;28923;45.412;10.852;2023-02-28T02:09:36;63.67;;;43.65;;
43327;SDS011;28923;45.412;10.852;2023-02-28T02:12:05;70.88;;;44.80;;
43327;SDS011;28923;45.412;10.852;2023-02-28T02:14:58;66.82;;;42.72;;
43327;SDS011;28923;45.412;10.852;2023-02-28T02:17:28;64.75;;;42.17;;
43327;SDS011;28923;45.412;10.852;2023-02-28T02:38:00;49.05;;;35.13;;
43327;SDS011;28923;45.412;10.852;2023-02-28T02:40:34;50.42;;;32.50;;
43327;SDS011;28923;45.412;10.852;2023-02-28T02:43:13;46.88;;;33.00;;
43327;SDS011;28923;45.412;10.852;2023-02-28T02:45:48;53.10;;;33.50;;
43327;SDS011;28923;45.412;10.852;2023-02-28T02:48:19;49.47;;;32.28;;
43327;SDS011;28923;45.412;10.852;2023-02-28T02:50:46;47.22;;;29.98;;
43327;SDS011;28923;45.412;10.852;2023-02-28T02:53:12;47.05;;;31.55;;
43327;SDS011;28923;45.412;10.852;2023-02-28T02:55:40;43.58;;;29.77;;
43327;SDS011;28923;45.412;10.852;2023-02-28T02:58:08;43.65;;;29.25;;
43327;SDS011;28923;45.412;10.852;2023-02-28T03:00:39;41.13;;;28.38;;
43327;SDS011;28923;45.412;10.852;2023-02-28T03:03:05;41.92;;;28.38;;
43327;SDS011;28923;45.412;10.852;2023-02-28T03:08:08;41.28;;;27.98;;
43327;SDS011;28923;45.412;10.852;2023-02-28T03:10:43;39.65;;;26.08;;
43327;SDS011;28923;45.412;10.852;2023-02-28T03:21:25;34.47;;;23.70;;
43327;SDS011;28923;45.412;10.852;2023-02-28T03:24:05;36.33;;;24.10;;
43327;SDS011;28923;45.412;10.852;2023-02-28T03:26:34;32.17;;;22.38;;
43327;SDS011;28923;45.412;10.852;2023-02-28T03:29:02;33.05;;;21.80;;
43327;SDS011;28923;45.412;10.852;2023-02-28T03:31:32;33.67;;;21.65;;
43327;SDS011;28923;45.412;10.852;2023-02-28T03:34:03;32.22;;;20.73;;
43327;SDS011;28923;45.412;10.852;2023-02-28T03:36:30;29.42;;;19.55;;
43327;SDS011;28923;45.412;10.852;2023-02-28T03:39:07;28.83;;;19.65;;
43327;SDS011;28923;45.412;10.852;2023-02-28T03:41:35;27.33;;;18.95;;
43327;SDS011;28923;45.412;10.852;2023-02-28T03:44:12;30.08;;;19.35;;
43327;SDS011;28923;45.412;10.852;2023-02-28T03:46:41;27.17;;;19.13;;
43327;SDS011;28923;45.412;10.852;2023-02-28T03:49:11;27.38;;;18.65;;
43327;SDS011;28923;45.412;10.852;2023-02-28T03:51:40;27.73;;;18.40;;
43327;SDS011;28923;45.412;10.852;2023-02-28T03:54:08;24.58;;;17.67;;
43327;SDS011;28923;45.412;10.852;2023-02-28T03:56:39;24.38;;;17.02;;
43327;SDS011;28923;45.412;10.852;2023-02-28T03:59:18;25.00;;;17.27;;
43327;SDS011;28923;45.412;10.852;2023-02-28T04:01:46;23.50;;;16.85;;
43327;SDS011;28923;45.412;10.852;2023-02-28T04:04:12;21.77;;;15.82;;
43327;SDS011;28923;45.412;10.852;2023-02-28T04:06:38;22.05;;;16.17;;
43327;SDS011;28923;45.412;10.852;2023-02-28T04:09:04;22.02;;;15.77;;
43327;SDS011;28923;45.412;10.852;2023-02-28T04:11:35;22.90;;;16.15;;
43327;SDS011;28923;45.412;10.852;2023-02-28T04:14:04;23.67;;;16.08;;
43327;SDS011;28923;45.412;10.852;2023-02-28T04:16:31;20.73;;;15.27;;
43327;SDS011;28923;45.412;10.852;2023-02-28T04:18:56;20.48;;;14.63;;
43327;SDS011;28923;45.412;10.852;2023-02-28T04:21:28;20.42;;;14.25;;
43327;SDS011;28923;45.412;10.852;2023-02-28T04:23:53;20.23;;;13.52;;
43327;SDS011;28923;45.412;10.852;2023-02-28T04:26:18;16.92;;;12.68;;
43327;SDS011;28923;45.412;10.852;2023-02-28T04:28:44;19.08;;;13.25;;
43327;SDS011;28923;45.412;10.852;2023-02-28T04:31:09;19.13;;;13.02;;
43327;SDS011;28923;45.412;10.852;2023-02-28T04:33:34;17.30;;;12.45;;
43327;SDS011;28923;45.412;10.852;2023-02-28T04:38:25;17.88;;;12.60;;
43327;SDS011;28923;45.412;10.852;2023-02-28T04:40:51;16.83;;;11.98;;
43327;SDS011;28923;45.412;10.852;2023-02-28T04:43:16;19.65;;;12.20;;
43327;SDS011;28923;45.412;10.852;2023-02-28T04:45:41;16.05;;;11.63;;
43327;SDS011;28923;45.412;10.852;2023-02-28T04:48:06;14.93;;;11.43;;
43327;SDS011;28923;45.412;10.852;2023-02-28T04:50:32;15.93;;;11.10;;
43327;SDS011;28923;45.412;10.852;2023-02-28T04:52:58;13.27;;;10.55;;
43327;SDS011;28923;45.412;10.852;2023-02-28T04:55:23;15.23;;;11.05;;
43327;SDS011;28923;45.412;10.852;2023-02-28T04:57:49;13.95;;;10.32;;
43327;SDS011;28923;45.412;10.852;2023-02-28T05:00:14;14.40;;;10.35;;
43327;SDS011;28923;45.412;10.852;2023-02-28T05:02:41;14.65;;;10.20;;
43327;SDS011;28923;45.412;10.852;2023-02-28T05:05:07;13.13;;;9.82;;
43327;SDS011;28923;45.412;10.852;2023-02-28T05:07:32;16.08;;;10.15;;
43327;SDS011;28923;45.412;10.852;2023-02-28T05:09:58;13.20;;;9.43;;
43327;SDS011;28923;45.412;10.852;2023-02-28T05:12:23;13.40;;;9.48;;
43327;SDS011;28923;45.412;10.852;2023-02-28T05:14:49;12.40;;;9.07;;
43327;SDS011;28923;45.412;10.852;2023-02-28T05:17:14;12.50;;;8.55;;
43327;SDS011;28923;45.412;10.852;2023-02-28T05:19:39;11.00;;;8.68;;
43327;SDS011;28923;45.412;10.852;2023-02-28T05:22:10;11.82;;;8.52;;
43327;SDS011;28923;45.412;10.852;2023-02-28T05:24:37;13.05;;;8.20;;
43327;SDS011;28923;45.412;10.852;2023-02-28T05:27:02;13.13;;;8.18;;
43327;SDS011;28923;45.412;10.852;2023-02-28T05:29:28;11.90;;;8.02;;
43327;SDS011;28923;45.412;10.852;2023-02-28T05:31:53;9.85;;;7.70;;
43327;SDS011;28923;45.412;10.852;2023-02-28T05:34:19;12.35;;;8.10;;
43327;SDS011;28923;45.412;10.852;2023-02-28T05:36:44;11.30;;;7.88;;
43327;SDS011;28923;45.412;10.852;2023-02-28T05:39:09;10.05;;;7.40;;
43327;SDS011;28923;45.412;10.852;2023-02-28T05:41:38;9.77;;;7.10;;
43327;SDS011;28923;45.412;10.852;2023-02-28T05:44:03;11.07;;;7.28;;
43327;SDS011;28923;45.412;10.852;2023-02-28T05:46:29;11.65;;;7.40;;
43327;SDS011;28923;45.412;10.852;2023-02-28T05:48:54;14.23;;;7.00;;
43327;SDS011;28923;45.412;10.852;2023-02-28T05:51:21;8.90;;;6.47;;
43327;SDS011;28923;45.412;10.852;2023-02-28T05:53:46;10.23;;;6.88;;
43327;SDS011;28923;45.412;10.852;2023-02-28T05:56:13;8.55;;;6.50;;
43327;SDS011;28923;45.412;10.852;2023-02-28T05:58:38;9.32;;;6.60;;
43327;SDS011;28923;45.412;10.852;2023-02-28T06:01:23;9.73;;;6.55;;
43327;SDS011;28923;45.412;10.852;2023-02-28T06:03:48;8.90;;;5.95;;
43327;SDS011;28923;45.412;10.852;2023-02-28T06:06:14;9.32;;;6.25;;
43327;SDS011;28923;45.412;10.852;2023-02-28T06:08:39;8.50;;;6.20;;
43327;SDS011;28923;45.412;10.852;2023-02-28T06:11:04;10.27;;;6.68;;
43327;SDS011;28923;45.412;10.852;2023-02-28T06:13:30;12.05;;;6.75;;
43327;SDS011;28923;45.412;10.852;2023-02-28T06:15:56;16.40;;;7.55;;
43327;SDS011;28923;45.412;10.852;2023-02-28T06:18:21;17.13;;;6.53;;
43327;SDS011;28923;45.412;10.852;2023-02-28T06:20:53;11.88;;;6.53;;
43327;SDS011;28923;45.412;10.852;2023-02-28T06:23:19;13.35;;;6.88;;
43327;SDS011;28923;45.412;10.852;2023-02-28T06:25:45;11.45;;;6.32;;
43327;SDS011;28923;45.412;10.852;2023-02-28T06:28:11;14.63;;;6.38;;
43327;SDS011;28923;45.412;10.852;2023-02-28T06:30:37;12.40;;;5.78;;
43327;SDS011;28923;45.412;10.852;2023-02-28T06:33:02;12.00;;;6.35;;
43327;SDS011;28923;45.412;10.852;2023-02-28T06:35:27;12.15;;;6.07;;
43327;SDS011;28923;45.412;10.852;2023-02-28T06:37:53;11.98;;;6.20;;
43327;SDS011;28923;45.412;10.852;2023-02-28T06:40:18;11.40;;;5.95;;
43327;SDS011;28923;45.412;10.852;2023-02-28T06:42:43;10.30;;;5.75;;
43327;SDS011;28923;45.412;10.852;2023-02-28T06:45:09;10.13;;;6.00;;
43327;SDS011;28923;45.412;10.852;2023-02-28T06:47:35;9.15;;;5.40;;
43327;SDS011;28923;45.412;10.852;2023-02-28T06:50:01;11.05;;;5.45;;
43327;SDS011;28923;45.412;10.852;2023-02-28T06:52:27;9.43;;;5.50;;
43327;SDS011;28923;45.412;10.852;2023-02-28T06:54:52;12.43;;;5.15;;
43327;SDS011;28923;45.412;10.852;2023-02-28T06:57:29;8.10;;;5.38;;
43327;SDS011;28923;45.412;10.852;2023-02-28T06:59:57;13.25;;;5.75;;
43327;SDS011;28923;45.412;10.852;2023-02-28T07:02:22;10.80;;;5.28;;
43327;SDS011;28923;45.412;10.852;2023-02-28T07:04:48;13.40;;;5.82;;
43327;SDS011;28923;45.412;10.852;2023-02-28T07:07:13;7.90;;;4.85;;
43327;SDS011;28923;45.412;10.852;2023-02-28T07:09:38;9.18;;;5.03;;
43327;SDS011;28923;45.412;10.852;2023-02-28T07:12:04;11.23;;;4.80;;
43327;SDS011;28923;45.412;10.852;2023-02-28T07:14:29;12.05;;;4.88;;
43327;SDS011;28923;45.412;10.852;2023-02-28T07:16:55;12.60;;;4.63;;
43327;SDS011;28923;45.412;10.852;2023-02-28T07:19:20;10.07;;;4.60;;
43327;SDS011;28923;45.412;10.852;2023-02-28T07:21:46;8.30;;;4.60;;
43327;SDS011;28923;45.412;10.852;2023-02-28T07:24:11;6.47;;;4.03;;
43327;SDS011;28923;45.412;10.852;2023-02-28T07:26:36;7.95;;;4.57;;
43327;SDS011;28923;45.412;10.852;2023-02-28T07:29:02;10.95;;;4.20;;
43327;SDS011;28923;45.412;10.852;2023-02-28T07:31:27;9.35;;;4.57;;
43327;SDS011;28923;45.412;10.852;2023-02-28T07:33:53;7.75;;;4.45;;
43327;SDS011;28923;45.412;10.852;2023-02-28T07:36:19;8.65;;;3.90;;
43327;SDS011;28923;45.412;10.852;2023-02-28T07:38:45;7.70;;;3.75;;
43327;SDS011;28923;45.412;10.852;2023-02-28T07:41:13;9.30;;;4.20;;
43327;SDS011;28923;45.412;10.852;2023-02-28T07:43:38;7.43;;;4.10;;
43327;SDS011;28923;45.412;10.852;2023-02-28T07:46:08;7.43;;;4.18;;
43327;SDS011;28923;45.412;10.852;2023-02-28T07:48:34;7.07;;;3.58;;
43327;SDS011;28923;45.412;10.852;2023-02-28T07:50:59;9.43;;;4.03;;
43327;SDS011;28923;45.412;10.852;2023-02-28T07:53:26;5.53;;;3.88;;
43327;SDS011;28923;45.412;10.852;2023-02-28T07:55:54;7.85;;;4.20;;
43327;SDS011;28923;45.412;10.852;2023-02-28T07:58:19;6.05;;;3.70;;
43327;SDS011;28923;45.412;10.852;2023-02-28T08:00:45;5.43;;;3.53;;
43327;SDS011;28923;45.412;10.852;2023-02-28T08:03:11;6.40;;;4.05;;
43327;SDS011;28923;45.412;10.852;2023-02-28T08:05:40;5.57;;;3.40;;
43327;SDS011;28923;45.412;10.852;2023-02-28T08:08:05;6.32;;;3.30;;
43327;SDS011;28923;45.412;10.852;2023-02-28T08:10:31;4.55;;;2.97;;
43327;SDS011;28923;45.412;10.852;2023-02-28T08:12:57;6.22;;;3.28;;
43327;SDS011;28923;45.412;10.852;2023-02-28T08:15:22;7.53;;;3.53;;
43327;SDS011;28923;45.412;10.852;2023-02-28T08:17:47;3.33;;;2.83;;
43327;SDS011;28923;45.412;10.852;2023-02-28T08:20:13;9.88;;;3.58;;
43327;SDS011;28923;45.412;10.852;2023-02-28T08:22:38;6.63;;;3.47;;
43327;SDS011;28923;45.412;10.852;2023-02-28T08:25:03;5.10;;;3.15;;
43327;SDS011;28923;45.412;10.852;2023-02-28T08:27:29;4.43;;;2.88;;
43327;SDS011;28923;45.412;10.852;2023-02-28T08:29:54;3.95;;;3.10;;
43327;SDS011;28923;45.412;10.852;2023-02-28T08:32:20;4.45;;;3.17;;
43327;SDS011;28923;45.412;10.852;2023-02-28T08:34:45;7.55;;;3.45;;
43327;SDS011;28923;45.412;10.852;2023-02-28T08:37:10;5.55;;;3.15;;
43327;SDS011;28923;45.412;10.852;2023-02-28T08:39:36;4.05;;;3.40;;
43327;SDS011;28923;45.412;10.852;2023-02-28T08:42:02;6.10;;;2.90;;
43327;SDS011;28923;45.412;10.852;2023-02-28T08:44:27;6.70;;;3.13;;
43327;SDS011;28923;45.412;10.852;2023-02-28T08:46:53;3.97;;;2.80;;
43327;SDS011;28923;45.412;10.852;2023-02-28T08:49:18;7.13;;;3.22;;
43327;SDS011;28923;45.412;10.852;2023-02-28T08:51:44;6.13;;;3.03;;
43327;SDS011;28923;45.412;10.852;2023-02-28T08:54:09;7.70;;;3.47;;
43327;SDS011;28923;45.412;10.852;2023-02-28T08:56:37;5.18;;;2.78;;
43327;SDS011;28923;45.412;10.852;2023-02-28T08:59:03;5.72;;;2.97;;
43327;SDS011;28923;45.412;10.852;2023-02-28T09:01:28;5.40;;;2.67;;
43327;SDS011;28923;45.412;10.852;2023-02-28T09:03:54;5.40;;;2.90;;
43327;SDS011;28923;45.412;10.852;2023-02-28T09:06:20;6.30;;;3.00;;
43327;SDS011;28923;45.412;10.852;2023-02-28T09:08:46;6.93;;;3.05;;
43327;SDS011;28923;45.412;10.852;2023-02-28T09:11:11;5.72;;;3.30;;
43327;SDS011;28923;45.412;10.852;2023-02-28T09:13:37;6.75;;;3.03;;
43327;SDS011;28923;45.412;10.852;2023-02-28T09:16:03;7.60;;;2.92;;
43327;SDS011;28923;45.412;10.852;2023-02-28T09:18:29;3.67;;;2.67;;
43327;SDS011;28923;45.412;10.852;2023-02-28T09:20:55;5.82;;;3.15;;
43327;SDS011;28923;45.412;10.852;2023-02-28T09:23:21;5.10;;;3.00;;
43327;SDS011;28923;45.412;10.852;2023-02-28T09:25:48;5.72;;;2.72;;
43327;SDS011;28923;45.412;10.852;2023-02-28T09:28:13;5.28;;;3.05;;
43327;SDS011;28923;45.412;10.852;2023-02-28T09:30:44;5.63;;;2.42;;
43327;SDS011;28923;45.412;10.852;2023-02-28T09:33:10;5.57;;;2.92;;
43327;SDS011;28923;45.412;10.852;2023-02-28T09:35:35;7.10;;;2.75;;
43327;SDS011;28923;45.412;10.852;2023-02-28T09:38:02;4.80;;;2.95;;
43327;SDS011;28923;45.412;10.852;2023-02-28T09:40:28;3.83;;;2.83;;
43327;SDS011;28923;45.412;10.852;2023-02-28T09:42:54;6.75;;;2.78;;
43327;SDS011;28923;45.412;10.852;2023-02-28T09:47:49;9.73;;;2.90;;
43327;SDS011;28923;45.412;10.852;2023-02-28T09:52:50;3.88;;;2.70;;
43327;SDS011;28923;45.412;10.852;2023-02-28T09:57:45;3.60;;;2.50;;
43327;SDS011;28923;45.412;10.852;2023-02-28T10:05:13;6.40;;;2.75;;
43327;SDS011;28923;45.412;10.852;2023-02-28T10:08:25;3.78;;;2.30;;
43327;SDS011;28923;45.412;10.852;2023-02-28T10:10:32;5.68;;;2.33;;
43327;SDS011;28923;45.412;10.852;2023-02-28T10:12:58;5.13;;;2.50;;
43327;SDS011;28923;45.412;10.852;2023-02-28T10:15:25;4.10;;;2.47;;
43327;SDS011;28923;45.412;10.852;2023-02-28T10:17:53;6.38;;;2.65;;
43327;SDS011;28923;45.412;10.852;2023-02-28T10:20:20;4.80;;;2.50;;
43327;SDS011;28923;45.412;10.852;2023-02-28T10:25:17;5.90;;;2.30;;
43327;SDS011;28923;45.412;10.852;2023-02-28T10:27:42;5.15;;;2.80;;
43327;SDS011;28923;45.412;10.852;2023-02-28T10:30:09;5.03;;;2.75;;
43327;SDS011;28923;45.412;10.852;2023-02-28T10:32:36;3.53;;;2.10;;
43327;SDS011;28923;45.412;10.852;2023-02-28T10:37:31;3.25;;;2.00;;
43327;SDS011;28923;45.412;10.852;2023-02-28T10:39:57;5.22;;;2.30;;
43327;SDS011;28923;45.412;10.852;2023-02-28T10:42:26;4.30;;;2.10;;
43327;SDS011;28923;45.412;10.852;2023-02-28T10:45:05;4.07;;;2.10;;
43327;SDS011;28923;45.412;10.852;2023-02-28T10:47:31;2.80;;;1.85;;
43327;SDS011;28923;45.412;10.852;2023-02-28T10:49:58;3.38;;;2.25;;
43327;SDS011;28923;45.412;10.852;2023-02-28T10:52:36;3.33;;;2.10;;
43327;SDS011;28923;45.412;10.852;2023-02-28T10:58:00;3.08;;;2.00;;
43327;SDS011;28923;45.412;10.852;2023-02-28T11:00:25;3.47;;;2.03;;
43327;SDS011;28923;45.412;10.852;2023-02-28T11:02:56;3.15;;;2.20;;
43327;SDS011;28923;45.412;10.852;2023-02-28T11:07:53;6.18;;;2.35;;
43327;SDS011;28923;45.412;10.852;2023-02-28T11:10:20;3.53;;;2.20;;
43327;SDS011;28923;45.412;10.852;2023-02-28T11:12:46;3.25;;;2.00;;
43327;SDS011;28923;45.412;10.852;2023-02-28T11:15:25;6.80;;;2.25;;
43327;SDS011;28923;45.412;10.852;2023-02-28T11:20:22;6.35;;;2.42;;
43327;SDS011;28923;45.412;10.852;2023-02-28T11:22:48;3.28;;;2.20;;
43327;SDS011;28923;45.412;10.852;2023-02-28T11:25:26;3.80;;;1.88;;
43327;SDS011;28923;45.412;10.852;2023-02-28T11:27:52;6.03;;;2.50;;
43327;SDS011;28923;45.412;10.852;2023-02-28T11:30:34;2.78;;;2.00;;
43327;SDS011;28923;45.412;10.852;2023-02-28T11:33:10;4.43;;;2.25;;
43327;SDS011;28923;45.412;10.852;2023-02-28T11:35:46;2.35;;;1.70;;
43327;SDS011;28923;45.412;10.852;2023-02-28T11:38:13;2.78;;;2.00;;
43327;SDS011;28923;45.412;10.852;2023-02-28T11:40:43;4.10;;;2.00;;
43327;SDS011;28923;45.412;10.852;2023-02-28T11:53:39;3.15;;;1.83;;
43327;SDS011;28923;45.412;10.852;2023-02-28T12:01:58;5.90;;;2.28;;
43327;SDS011;28923;45.412;10.852;2023-02-28T12:09:30;5.80;;;1.92;;
43327;SDS011;28923;45.412;10.852;2023-02-28T12:17:50;8.73;;;2.13;;
43327;SDS011;28923;45.412;10.852;2023-02-28T12:25:45;6.05;;;2.00;;
43327;SDS011;28923;45.412;10.852;2023-02-28T12:28:14;4.47;;;1.98;;
43327;SDS011;28923;45.412;10.852;2023-02-28T12:30:43;2.42;;;2.00;;
43327;SDS011;28923;45.412;10.852;2023-02-28T12:33:12;6.30;;;1.88;;
43327;SDS011;28923;45.412;10.852;2023-02-28T12:40:50;5.32;;;1.92;;
43327;SDS011;28923;45.412;10.852;2023-02-28T12:43:17;4.85;;;1.88;;
43327;SDS011;28923;45.412;10.852;2023-02-28T12:45:56;6.65;;;1.80;;
43327;SDS011;28923;45.412;10.852;2023-02-28T12:48:46;2.35;;;1.80;;
43327;SDS011;28923;45.412;10.852;2023-02-28T12:51:09;3.97;;;2.15;;
43327;SDS011;28923;45.412;10.852;2023-02-28T13:10:50;3.45;;;1.98;;
43327;SDS011;28923;45.412;10.852;2023-02-28T13:13:23;2.75;;;1.75;;
43327;SDS011;28923;45.412;10.852;2023-02-28T13:15:59;2.58;;;1.90;;
43327;SDS011;28923;45.412;10.852;2023-02-28T13:18:32;3.72;;;1.85;;
43327;SDS011;28923;45.412;10.852;2023-02-28T13:20:58;2.50;;;1.83;;
43327;SDS011;28923;45.412;10.852;2023-02-28T13:23:39;4.15;;;1.83;;
43327;SDS011;28923;45.412;10.852;2023-02-28T13:26:05;4.72;;;2.03;;
43327;SDS011;28923;45.412;10.852;2023-02-28T13:31:15;2.88;;;2.00;;
43327;SDS011;28923;45.412;10.852;2023-02-28T13:38:57;4.75;;;2.10;;
43327;SDS011;28923;45.412;10.852;2023-02-28T13:44:00;2.67;;;1.85;;
43327;SDS011;28923;45.412;10.852;2023-02-28T13:46:26;2.75;;;2.00;;
43327;SDS011;28923;45.412;10.852;2023-02-28T13:48:52;4.90;;;2.17;;
43327;SDS011;28923;45.412;10.852;2023-02-28T13:54:06;3.13;;;2.00;;
43327;SDS011;28923;45.412;10.852;2023-02-28T13:56:35;5.95;;;2.10;;
43327;SDS011;28923;45.412;10.852;2023-02-28T14:02:00;5.20;;;2.03;;
43327;SDS011;28923;45.412;10.852;2023-02-28T14:04:46;3.60;;;2.05;;
43327;SDS011;28923;45.412;10.852;2023-02-28T14:07:26;3.88;;;2.30;;
43327;SDS011;28923;45.412;10.852;2023-02-28T14:10:03;4.13;;;1.98;;
43327;SDS011;28923;45.412;10.852;2023-02-28T14:13:38;2.30;;;1.65;;
43327;SDS011;28923;45.412;10.852;2023-02-28T14:18:20;2.03;;;1.77;;
43327;SDS011;28923;45.412;10.852;2023-02-28T14:20:47;2.47;;;2.00;;
43327;SDS011;28923;45.412;10.852;2023-02-28T14:23:36;2.42;;;1.90;;
43327;SDS011;28923;45.412;10.852;2023-02-28T14:31:03;2.28;;;1.80;;
43327;SDS011;28923;45.412;10.852;2023-02-28T14:33:42;3.37;;;2.13;;
43327;SDS011;28923;45.412;10.852;2023-02-28T14:36:17;5.45;;;2.30;;
43327;SDS011;28923;45.412;10.852;2023-02-28T14:38:54;3.20;;;1.98;;
43327;SDS011;28923;45.412;10.852;2023-02-28T14:41:39;3.85;;;2.00;;
43327;SDS011;28923;45.412;10.852;2023-02-28T14:46:40;2.22;;;1.70;;
43327;SDS011;28923;45.412;10.852;2023-02-28T14:49:06;3.95;;;1.90;;
43327;SDS011;28923;45.412;10.852;2023-02-28T14:51:32;3.55;;;1.80;;
43327;SDS011;28923;45.412;10.852;2023-02-28T14:53:59;4.32;;;2.03;;
43327;SDS011;28923;45.412;10.852;2023-02-28T14:56:37;2.88;;;1.92;;
43327;SDS011;28923;45.412;10.852;2023-02-28T14:59:04;3.38;;;1.98;;
43327;SDS011;28923;45.412;10.852;2023-02-28T15:01:30;3.10;;;1.80;;
43327;SDS011;28923;45.412;10.852;2023-02-28T15:04:01;2.88;;;2.00;;
43327;SDS011;28923;45.412;10.852;2023-02-28T15:06:29;4.28;;;1.77;;
43327;SDS011;28923;45.412;10.852;2023-02-28T15:09:11;4.22;;;2.30;;
43327;SDS011;28923;45.412;10.852;2023-02-28T15:11:38;3.08;;;2.28;;
43327;SDS011;28923;45.412;10.852;2023-02-28T15:14:04;4.15;;;2.03;;
43327;SDS011;28923;45.412;10.852;2023-02-28T15:16:34;3.50;;;1.85;;
43327;SDS011;28923;45.412;10.852;2023-02-28T15:19:02;3.03;;;2.08;;
43327;SDS011;28923;45.412;10.852;2023-02-28T15:21:30;3.33;;;2.00;;
43327;SDS011;28923;45.412;10.852;2023-02-28T15:24:06;3.03;;;2.00;;
43327;SDS011;28923;45.412;10.852;2023-02-28T15:26:33;2.30;;;1.88;;
43327;SDS011;28923;45.412;10.852;2023-02-28T15:29:00;2.60;;;2.03;;
43327;SDS011;28923;45.412;10.852;2023-02-28T15:31:32;2.10;;;1.90;;
43327;SDS011;28923;45.412;10.852;2023-02-28T15:34:02;2.00;;;1.77;;
43327;SDS011;28923;45.412;10.852;2023-02-28T15:36:31;2.78;;;2.03;;
43327;SDS011;28923;45.412;10.852;2023-02-28T15:38:59;3.35;;;2.00;;
43327;SDS011;28923;45.412;10.852;2023-02-28T15:41:35;2.65;;;1.98;;
43327;SDS011;28923;45.412;10.852;2023-02-28T15:46:54;2.03;;;1.83;;
43327;SDS011;28923;45.412;10.852;2023-02-28T15:49:20;4.10;;;2.00;;
43327;SDS011;28923;45.412;10.852;2023-02-28T15:51:48;3.25;;;1.95;;
43327;SDS011;28923;45.412;10.852;2023-02-28T15:54:21;2.95;;;1.98;;
43327;SDS011;28923;45.412;10.852;2023-02-28T15:56:52;1.90;;;1.70;;
43327;SDS011;28923;45.412;10.852;2023-02-28T15:59:20;2.63;;;2.05;;
43327;SDS011;28923;45.412;10.852;2023-02-28T16:01:46;6.28;;;2.22;;
43327;SDS011;28923;45.412;10.852;2023-02-28T16:04:15;3.75;;;2.10;;
43327;SDS011;28923;45.412;10.852;2023-02-28T16:06:42;3.75;;;2.00;;
43327;SDS011;28923;45.412;10.852;2023-02-28T16:09:16;2.60;;;1.67;;
43327;SDS011;28923;45.412;10.852;2023-02-28T16:11:44;4.40;;;2.13;;
43327;SDS011;28923;45.412;10.852;2023-02-28T16:14:14;4.00;;;2.10;;
43327;SDS011;28923;45.412;10.852;2023-02-28T16:16:48;4.32;;;2.10;;
43327;SDS011;28923;45.412;10.852;2023-02-28T16:19:13;3.92;;;2.22;;
43327;SDS011;28923;45.412;10.852;2023-02-28T16:21:39;2.58;;;2.13;;
43327;SDS011;28923;45.412;10.852;2023-02-28T16:24:04;4.43;;;2.03;;
43327;SDS011;28923;45.412;10.852;2023-02-28T16:26:30;2.95;;;1.80;;
43327;SDS011;28923;45.412;10.852;2023-02-28T16:28:55;4.25;;;2.20;;
43327;SDS011;28923;45.412;10.852;2023-02-28T16:31:21;2.78;;;2.10;;
43327;SDS011;28923;45.412;10.852;2023-02-28T16:33:46;3.60;;;2.00;;
43327;SDS011;28923;45.412;10.852;2023-02-28T16:36:19;3.88;;;2.08;;
43327;SDS011;28923;45.412;10.852;2023-02-28T16:38:44;3.15;;;1.90;;
43327;SDS011;28923;45.412;10.852;2023-02-28T16:41:14;4.68;;;2.15;;
43327;SDS011;28923;45.412;10.852;2023-02-28T16:43:44;3.28;;;2.08;;
43327;SDS011;28923;45.412;10.852;2023-02-28T16:46:10;3.80;;;2.28;;
43327;SDS011;28923;45.412;10.852;2023-02-28T16:48:36;2.35;;;2.00;;
43327;SDS011;28923;45.412;10.852;2023-02-28T16:51:02;2.90;;;1.90;;